ARG2646 SAME-SAEZ
Flight info
| Callsign | ARG2646 |
|---|---|
| Flight time | N/A |
| Altitude | 33000 |
| Route | KAMUV1C KAMUV UT670 SNT |
| Aircraft | B738/M-SDE2E3FGHIRWXY/LB1 |
Departure
| Time | 2026-04-27 22:26 |
|---|---|
| Airport | Governor Francisco Gabrielli International Airport (SAME) |
Arrival
| Time | N/A |
|---|---|
| Airport | Ezeiza International Airport - Ministro Pistarini (SAEZ) |
| Time | Latitude | Longitude | Altitude | Speed | Heading |
|---|---|---|---|---|---|
| 2026-04-27 22:09 | -32.82802 | -68.79655 | 2326 ft | 0 kts | 270° |
| 2026-04-27 22:20 | -32.82802 | -68.79657 | 2326 ft | 1 kts | 271° |
| 2026-04-27 22:20 | -32.82807 | -68.79672 | 2326 ft | 2 kts | 224° |
| 2026-04-27 22:20 | -32.82835 | -68.79678 | 2327 ft | 5 kts | 181° |
| 2026-04-27 22:20 | -32.82877 | -68.79675 | 2327 ft | 7 kts | 167° |
| 2026-04-27 22:21 | -32.82921 | -68.79638 | 2327 ft | 8 kts | 134° |
| 2026-04-27 22:21 | -32.82967 | -68.79578 | 2328 ft | 10 kts | 136° |
| 2026-04-27 22:21 | -32.83030 | -68.79519 | 2328 ft | 11 kts | 158° |
| 2026-04-27 22:21 | -32.83115 | -68.79512 | 2329 ft | 12 kts | 183° |
| 2026-04-27 22:22 | -32.83203 | -68.79514 | 2330 ft | 13 kts | 179° |
| 2026-04-27 22:22 | -32.83302 | -68.79513 | 2330 ft | 14 kts | 180° |
| 2026-04-27 22:22 | -32.83407 | -68.79515 | 2331 ft | 16 kts | 182° |
| 2026-04-27 22:22 | -32.83524 | -68.79520 | 2332 ft | 16 kts | 181° |
| 2026-04-27 22:23 | -32.83637 | -68.79517 | 2332 ft | 15 kts | 178° |
| 2026-04-27 22:23 | -32.83739 | -68.79520 | 2332 ft | 14 kts | 180° |
| 2026-04-27 22:23 | -32.83840 | -68.79520 | 2332 ft | 14 kts | 182° |
| 2026-04-27 22:23 | -32.83949 | -68.79526 | 2332 ft | 15 kts | 181° |
| 2026-04-27 22:24 | -32.84048 | -68.79510 | 2332 ft | 14 kts | 159° |
| 2026-04-27 22:24 | -32.84148 | -68.79463 | 2331 ft | 16 kts | 159° |
| 2026-04-27 22:24 | -32.84260 | -68.79411 | 2330 ft | 17 kts | 160° |
| 2026-04-27 22:24 | -32.84333 | -68.79341 | 2330 ft | 12 kts | 79° |
| 2026-04-27 22:25 | -32.84257 | -68.79310 | 2330 ft | 11 kts | 4° |
| 2026-04-27 22:25 | -32.84015 | -68.79304 | 2331 ft | 74 kts | 1° |
| 2026-04-27 22:25 | -32.83232 | -68.79293 | 2330 ft | 147 kts | 1° |
| 2026-04-27 22:25 | -32.82008 | -68.79268 | 2429 ft | 195 kts | 2° |
| 2026-04-27 22:26 | -32.80598 | -68.79201 | 2909 ft | 212 kts | 1° |
| 2026-04-27 22:26 | -32.79054 | -68.79192 | 3427 ft | 232 kts | 1° |
| 2026-04-27 22:26 | -32.77398 | -68.79166 | 4184 ft | 251 kts | 2° |
| 2026-04-27 22:26 | -32.75647 | -68.78683 | 4954 ft | 262 kts | 31° |
| 2026-04-27 22:27 | -32.74350 | -68.77138 | 5724 ft | 272 kts | 60° |
| 2026-04-27 22:27 | -32.73613 | -68.75043 | 6489 ft | 278 kts | 77° |
| 2026-04-27 22:27 | -32.73378 | -68.72762 | 7244 ft | 280 kts | 88° |
| 2026-04-27 22:27 | -32.73292 | -68.70461 | 7989 ft | 283 kts | 87° |
| 2026-04-27 22:28 | -32.73184 | -68.68132 | 8736 ft | 287 kts | 87° |
| 2026-04-27 22:28 | -32.73068 | -68.65745 | 9493 ft | 293 kts | 87° |
| 2026-04-27 22:28 | -32.72970 | -68.63322 | 10240 ft | 300 kts | 91° |
| 2026-04-27 22:28 | -32.73258 | -68.60867 | 10989 ft | 306 kts | 104° |
| 2026-04-27 22:29 | -32.73773 | -68.58407 | 11720 ft | 313 kts | 104° |
| 2026-04-27 22:29 | -32.74289 | -68.55865 | 12315 ft | 324 kts | 104° |
| 2026-04-27 22:29 | -32.74812 | -68.53236 | 12915 ft | 334 kts | 104° |
| 2026-04-27 22:29 | -32.75356 | -68.50507 | 13521 ft | 343 kts | 104° |
| 2026-04-27 22:30 | -32.75905 | -68.47749 | 14117 ft | 351 kts | 104° |
| 2026-04-27 22:30 | -32.76473 | -68.44884 | 14721 ft | 359 kts | 104° |
| 2026-04-27 22:30 | -32.77045 | -68.42001 | 15315 ft | 366 kts | 104° |
| 2026-04-27 22:30 | -32.77636 | -68.39017 | 15919 ft | 373 kts | 104° |
| 2026-04-27 22:31 | -32.78234 | -68.35988 | 16521 ft | 379 kts | 104° |
| 2026-04-27 22:31 | -32.78839 | -68.32924 | 17121 ft | 384 kts | 104° |
| 2026-04-27 22:31 | -32.79446 | -68.29849 | 17716 ft | 389 kts | 104° |
| 2026-04-27 22:31 | -32.80068 | -68.26692 | 18320 ft | 393 kts | 104° |
| 2026-04-27 22:32 | -32.80686 | -68.23549 | 18915 ft | 397 kts | 104° |
| 2026-04-27 22:32 | -32.81318 | -68.20335 | 19519 ft | 400 kts | 104° |
| 2026-04-27 22:32 | -32.81955 | -68.17094 | 20122 ft | 402 kts | 104° |
| 2026-04-27 22:32 | -32.82585 | -68.13885 | 20715 ft | 405 kts | 105° |
| 2026-04-27 22:33 | -32.83227 | -68.10608 | 21318 ft | 406 kts | 105° |
| 2026-04-27 22:33 | -32.83861 | -68.07368 | 21912 ft | 407 kts | 105° |
| 2026-04-27 22:33 | -32.84503 | -68.04079 | 22513 ft | 408 kts | 105° |
| 2026-04-27 22:33 | -32.85135 | -68.00836 | 23107 ft | 407 kts | 106° |
| 2026-04-27 22:34 | -32.85779 | -67.97535 | 23591 ft | 410 kts | 106° |
| 2026-04-27 22:34 | -32.86417 | -67.94258 | 24039 ft | 413 kts | 106° |
| 2026-04-27 22:34 | -32.87067 | -67.90915 | 24492 ft | 415 kts | 107° |
| 2026-04-27 22:34 | -32.87711 | -67.87593 | 24939 ft | 418 kts | 107° |
| 2026-04-27 22:35 | -32.88367 | -67.84204 | 25392 ft | 420 kts | 107° |
| 2026-04-27 22:35 | -32.89026 | -67.80797 | 25846 ft | 422 kts | 107° |
| 2026-04-27 22:35 | -32.89676 | -67.77428 | 26292 ft | 423 kts | 107° |
| 2026-04-27 22:35 | -32.90337 | -67.73994 | 26744 ft | 425 kts | 107° |
| 2026-04-27 22:36 | -32.90987 | -67.70612 | 27189 ft | 426 kts | 108° |
| 2026-04-27 22:36 | -32.91654 | -67.67169 | 27641 ft | 426 kts | 108° |
| 2026-04-27 22:36 | -32.92327 | -67.63719 | 28093 ft | 426 kts | 108° |
| 2026-04-27 22:36 | -32.92990 | -67.60317 | 28539 ft | 426 kts | 109° |
| 2026-04-27 22:37 | -32.93660 | -67.56868 | 28991 ft | 426 kts | 109° |
| 2026-04-27 22:37 | -32.94318 | -67.53471 | 29437 ft | 425 kts | 109° |
| 2026-04-27 22:37 | -32.94980 | -67.50047 | 29887 ft | 424 kts | 109° |
| 2026-04-27 22:37 | -32.95641 | -67.46620 | 30339 ft | 423 kts | 109° |
| 2026-04-27 22:38 | -32.96289 | -67.43252 | 30784 ft | 421 kts | 110° |
| 2026-04-27 22:38 | -32.96939 | -67.39864 | 31234 ft | 419 kts | 110° |
| 2026-04-27 22:38 | -32.97578 | -67.36526 | 31680 ft | 417 kts | 110° |
| 2026-04-27 22:38 | -32.98224 | -67.33156 | 32039 ft | 417 kts | 110° |
| 2026-04-27 22:39 | -32.98875 | -67.29766 | 32276 ft | 420 kts | 110° |
| 2026-04-27 22:39 | -32.99522 | -67.26398 | 32463 ft | 423 kts | 110° |
| 2026-04-27 22:39 | -33.00180 | -67.22958 | 32655 ft | 427 kts | 110° |
| 2026-04-27 22:39 | -33.00834 | -67.19531 | 32844 ft | 430 kts | 110° |
| 2026-04-27 22:40 | -33.01505 | -67.16017 | 32972 ft | 435 kts | 110° |
| 2026-04-27 22:40 | -33.02181 | -67.12479 | 33093 ft | 440 kts | 110° |
| 2026-04-27 22:40 | -33.02856 | -67.08942 | 33130 ft | 446 kts | 109° |
| 2026-04-27 22:41 | -33.04245 | -67.01644 | 33130 ft | 459 kts | 108° |
| 2026-04-27 22:41 | -33.05656 | -66.94147 | 33129 ft | 471 kts | 107° |
| 2026-04-27 22:42 | -33.07099 | -66.86407 | 33128 ft | 482 kts | 107° |
| 2026-04-27 22:42 | -33.08560 | -66.78556 | 33126 ft | 488 kts | 107° |
| 2026-04-27 22:43 | -33.10016 | -66.70689 | 33126 ft | 486 kts | 107° |
| 2026-04-27 22:43 | -33.11463 | -66.62862 | 33128 ft | 484 kts | 107° |
| 2026-04-27 22:44 | -33.12907 | -66.55035 | 33128 ft | 483 kts | 107° |
| 2026-04-27 22:44 | -33.14342 | -66.47237 | 33128 ft | 483 kts | 107° |
| 2026-04-27 22:45 | -33.15775 | -66.39422 | 33128 ft | 483 kts | 107° |
| 2026-04-27 22:45 | -33.17213 | -66.31558 | 33127 ft | 484 kts | 106° |
| 2026-04-27 22:46 | -33.18641 | -66.23733 | 33128 ft | 484 kts | 106° |
| 2026-04-27 22:46 | -33.20061 | -66.15908 | 33128 ft | 484 kts | 106° |
| 2026-04-27 22:47 | -33.21477 | -66.08083 | 33128 ft | 483 kts | 106° |
| 2026-04-27 22:47 | -33.22887 | -66.00254 | 33128 ft | 483 kts | 106° |
| 2026-04-27 22:48 | -33.24293 | -65.92419 | 33128 ft | 483 kts | 106° |
| 2026-04-27 22:48 | -33.25693 | -65.84586 | 33128 ft | 483 kts | 106° |
| 2026-04-27 22:49 | -33.27088 | -65.76753 | 33128 ft | 483 kts | 106° |
| 2026-04-27 22:49 | -33.28478 | -65.68920 | 33128 ft | 483 kts | 106° |
| 2026-04-27 22:50 | -33.29863 | -65.61083 | 33128 ft | 483 kts | 106° |
| 2026-04-27 22:50 | -33.31244 | -65.53237 | 33128 ft | 483 kts | 106° |
| 2026-04-27 22:51 | -33.32619 | -65.45400 | 33128 ft | 483 kts | 106° |
| 2026-04-27 22:51 | -33.33998 | -65.37499 | 33128 ft | 483 kts | 106° |
| 2026-04-27 22:52 | -33.35363 | -65.29654 | 33128 ft | 483 kts | 105° |
| 2026-04-27 22:52 | -33.36726 | -65.21802 | 33128 ft | 483 kts | 105° |
| 2026-04-27 22:53 | -33.38096 | -65.13876 | 33128 ft | 483 kts | 105° |
| 2026-04-27 22:53 | -33.39463 | -65.05928 | 33128 ft | 483 kts | 105° |
| 2026-04-27 22:54 | -33.40863 | -64.97773 | 33127 ft | 487 kts | 105° |
| 2026-04-27 22:54 | -33.42241 | -64.89733 | 33130 ft | 497 kts | 104° |
| 2026-04-27 22:55 | -33.43621 | -64.81602 | 33128 ft | 501 kts | 103° |
| 2026-04-27 22:55 | -33.44991 | -64.73435 | 33127 ft | 501 kts | 102° |
| 2026-04-27 22:56 | -33.46351 | -64.65301 | 33127 ft | 500 kts | 102° |
| 2026-04-27 22:56 | -33.47712 | -64.57158 | 33128 ft | 500 kts | 102° |
| 2026-04-27 22:57 | -33.49070 | -64.49008 | 33128 ft | 500 kts | 102° |
| 2026-04-27 22:57 | -33.50425 | -64.40856 | 33128 ft | 500 kts | 102° |
| 2026-04-27 22:58 | -33.51772 | -64.32722 | 33127 ft | 500 kts | 102° |
| 2026-04-27 22:58 | -33.53119 | -64.24572 | 33123 ft | 500 kts | 102° |
| 2026-04-27 22:59 | -33.54459 | -64.16419 | 33114 ft | 500 kts | 102° |
| 2026-04-27 22:59 | -33.55791 | -64.08271 | 33105 ft | 499 kts | 102° |
| 2026-04-27 23:00 | -33.57782 | -63.96022 | 33101 ft | 499 kts | 102° |
| 2026-04-27 23:00 | -33.59100 | -63.87873 | 33101 ft | 499 kts | 102° |
| 2026-04-27 23:01 | -33.60412 | -63.79716 | 33101 ft | 499 kts | 102° |
| 2026-04-27 23:01 | -33.61718 | -63.71568 | 33101 ft | 499 kts | 102° |
| 2026-04-27 23:02 | -33.63020 | -63.63408 | 33101 ft | 499 kts | 102° |
| 2026-04-27 23:02 | -33.64318 | -63.55236 | 33101 ft | 499 kts | 102° |
| 2026-04-27 23:03 | -33.65607 | -63.47093 | 33101 ft | 499 kts | 102° |
| 2026-04-27 23:03 | -33.66899 | -63.38886 | 33101 ft | 499 kts | 102° |
| 2026-04-27 23:04 | -33.68182 | -63.30711 | 33101 ft | 499 kts | 101° |
| 2026-04-27 23:04 | -33.69460 | -63.22549 | 33101 ft | 499 kts | 101° |
| 2026-04-27 23:05 | -33.70730 | -63.14386 | 33101 ft | 499 kts | 101° |
| 2026-04-27 23:05 | -33.71996 | -63.06207 | 33100 ft | 500 kts | 101° |
| 2026-04-27 23:06 | -33.73262 | -62.97983 | 33101 ft | 504 kts | 101° |
| 2026-04-27 23:06 | -33.74536 | -62.89645 | 33101 ft | 507 kts | 100° |
| 2026-04-27 23:07 | -33.75798 | -62.81318 | 33101 ft | 508 kts | 100° |
| 2026-04-27 23:07 | -33.77054 | -62.73012 | 33100 ft | 507 kts | 100° |
| 2026-04-27 23:08 | -33.78316 | -62.64684 | 33072 ft | 507 kts | 100° |
| 2026-04-27 23:08 | -33.79569 | -62.56366 | 33046 ft | 507 kts | 99° |
| 2026-04-27 23:09 | -33.80799 | -62.48063 | 33047 ft | 507 kts | 99° |
| 2026-04-27 23:09 | -33.82031 | -62.39754 | 33047 ft | 507 kts | 100° |
| 2026-04-27 23:10 | -33.83498 | -62.31427 | 33044 ft | 507 kts | 108° |
| 2026-04-27 23:10 | -33.85890 | -62.23473 | 33048 ft | 508 kts | 110° |
| 2026-04-27 23:11 | -33.88251 | -62.15511 | 33047 ft | 508 kts | 109° |
| 2026-04-27 23:11 | -33.90565 | -62.07516 | 33047 ft | 508 kts | 109° |
| 2026-04-27 23:12 | -33.92860 | -61.99506 | 33047 ft | 508 kts | 109° |
| 2026-04-27 23:12 | -33.95140 | -61.91494 | 33047 ft | 508 kts | 109° |
| 2026-04-27 23:13 | -33.97426 | -61.83418 | 33047 ft | 508 kts | 109° |
| 2026-04-27 23:13 | -33.99690 | -61.75391 | 33047 ft | 508 kts | 109° |
| 2026-04-27 23:14 | -34.01952 | -61.67343 | 33047 ft | 508 kts | 109° |
| 2026-04-27 23:14 | -34.04205 | -61.59306 | 33053 ft | 507 kts | 109° |
| 2026-04-27 23:15 | -34.06449 | -61.51271 | 33062 ft | 507 kts | 109° |
| 2026-04-27 23:15 | -34.08685 | -61.43246 | 33071 ft | 507 kts | 109° |
| 2026-04-27 23:16 | -34.10951 | -61.35089 | 33074 ft | 507 kts | 109° |
| 2026-04-27 23:16 | -34.13203 | -61.26977 | 33074 ft | 507 kts | 108° |
| 2026-04-27 23:17 | -34.15429 | -61.18929 | 33074 ft | 507 kts | 108° |
| 2026-04-27 23:17 | -34.17657 | -61.10839 | 33074 ft | 512 kts | 108° |
| 2026-04-27 23:18 | -34.19907 | -61.02648 | 33074 ft | 520 kts | 108° |
| 2026-04-27 23:18 | -34.22182 | -60.94336 | 33074 ft | 525 kts | 108° |
| 2026-04-27 23:19 | -34.24467 | -60.85963 | 33073 ft | 525 kts | 108° |
| 2026-04-27 23:19 | -34.26690 | -60.77791 | 33059 ft | 499 kts | 108° |
| 2026-04-27 23:20 | -34.27755 | -60.73861 | 33058 ft | 484 kts | 108° |
| 2026-04-27 23:20 | -34.28790 | -60.70039 | 33063 ft | 485 kts | 108° |
| 2026-04-27 23:20 | -34.30926 | -60.62137 | 33075 ft | 499 kts | 108° |
| 2026-04-27 23:21 | -34.33091 | -60.54116 | 32718 ft | 508 kts | 108° |
| 2026-04-27 23:21 | -34.34184 | -60.50059 | 32209 ft | 504 kts | 108° |
| 2026-04-27 23:21 | -34.35286 | -60.46052 | 31701 ft | 497 kts | 109° |
| 2026-04-27 23:22 | -34.36447 | -60.42180 | 31121 ft | 494 kts | 110° |
| 2026-04-27 23:22 | -34.37646 | -60.38276 | 30519 ft | 492 kts | 110° |
| 2026-04-27 23:22 | -34.38821 | -60.34404 | 29915 ft | 487 kts | 109° |
| 2026-04-27 23:22 | -34.39621 | -60.31749 | 29499 ft | 484 kts | 109° |